Time;durP1;ratioP1;P1;durP2;ratioP2;P2;SDS_P1;SDS_P2;PMS_P1;PMS_P2;Temp;Humidity;BMP_temperature;BMP_pressure;BME280_temperature;BME280_humidity;BME280_pressure;Samples;Min_cycle;Max_cycle;Signal;HPM_P1;HPM_P2
2023/07/31 00:00:48;;;;;;;9.35;4.35;;;17.00;99.90;;;;;;5111714;28;20058;-59
2023/07/31 00:03:13;;;;;;;6.60;4.45;;;16.90;99.90;;;;;;5112772;28;20047;-59
2023/07/31 00:05:39;;;;;;;8.07;4.70;;;16.90;99.90;;;;;;5113348;28;20042;-59
2023/07/31 00:08:04;;;;;;;4.72;3.90;;;16.80;99.90;;;;;;5112778;28;20036;-59
2023/07/31 00:10:30;;;;;;;3.85;3.50;;;16.80;99.90;;;;;;5113327;27;20443;-58
2023/07/31 00:12:55;;;;;;;4.10;3.40;;;16.80;99.90;;;;;;5113396;28;20332;-59
2023/07/31 00:15:21;;;;;;;4.97;3.40;;;16.80;99.90;;;;;;5112965;28;20047;-58
2023/07/31 00:17:47;;;;;;;4.30;3.10;;;16.70;99.90;;;;;;5112977;28;20039;-58
2023/07/31 00:20:13;;;;;;;5.00;3.00;;;16.70;99.90;;;;;;5112883;28;20470;-58
2023/07/31 00:22:38;;;;;;;4.80;2.72;;;16.60;99.90;;;;;;5112935;28;20127;-60
2023/07/31 00:25:06;;;;;;;4.30;2.78;;;16.70;99.90;;;;;;5112856;28;20046;-57
2023/07/31 00:27:32;;;;;;;2.35;2.15;;;16.60;99.90;;;;;;5113214;28;20035;-58
2023/07/31 00:29:57;;;;;;;2.70;2.35;;;16.60;99.90;;;;;;5112921;28;20075;-58
2023/07/31 00:32:23;;;;;;;3.22;2.30;;;16.60;99.90;;;;;;5112803;28;20087;-57
2023/07/31 00:34:49;;;;;;;7.18;2.40;;;16.50;99.90;;;;;;5112690;28;20044;-58
2023/07/31 00:37:15;;;;;;;3.45;2.65;;;16.60;99.90;;;;;;5112648;28;20042;-58
2023/07/31 00:39:41;;;;;;;5.78;2.50;;;16.50;99.90;;;;;;5112941;28;20096;-57
2023/07/31 00:42:06;;;;;;;4.22;2.53;;;16.60;99.90;;;;;;5112577;28;20036;-58
2023/07/31 00:44:33;;;;;;;3.08;2.50;;;16.50;99.90;;;;;;5112659;28;20036;-58
2023/07/31 00:46:59;;;;;;;2.80;2.50;;;16.50;99.90;;;;;;5112347;28;20474;-57
2023/07/31 00:49:25;;;;;;;5.82;2.80;;;16.40;99.90;;;;;;5112319;27;20039;-57
2023/07/31 00:51:51;;;;;;;5.25;2.80;;;16.50;99.90;;;;;;5112430;28;20036;-57
2023/07/31 00:54:16;;;;;;;3.10;2.65;;;16.50;99.90;;;;;;5112526;28;20043;-57
2023/07/31 00:56:45;;;;;;;4.95;2.65;;;16.40;99.90;;;;;;5112777;28;20051;-57
2023/07/31 00:59:10;;;;;;;6.32;2.63;;;16.40;99.90;;;;;;5112786;28;20035;-57
2023/07/31 01:01:37;;;;;;;4.75;2.97;;;16.40;99.90;;;;;;5112654;28;20389;-57
2023/07/31 01:04:02;;;;;;;4.88;3.63;;;16.40;99.90;;;;;;5111132;28;20047;-58
2023/07/31 01:06:40;;;;;;;11.00;3.63;;;16.40;99.90;;;;;;5112345;28;20092;-57
2023/07/31 01:09:22;;;;;;;7.00;3.42;;;16.30;99.90;;;;;;5112633;28;20469;-58
2023/07/31 01:11:56;;;;;;;3.92;2.88;;;16.20;99.90;;;;;;5112312;28;20111;-59
2023/07/31 01:14:21;;;;;;;6.78;3.00;;;16.20;99.90;;;;;;5112471;28;20040;-58
2023/07/31 01:16:47;;;;;;;10.98;3.30;;;16.40;99.90;;;;;;5112287;28;20044;-59
2023/07/31 01:19:15;;;;;;;9.52;3.42;;;16.20;99.90;;;;;;5112569;28;20042;-59
2023/07/31 01:21:52;;;;;;;5.18;2.80;;;16.30;99.90;;;;;;5112319;28;20074;-58
2023/07/31 01:24:21;;;;;;;4.30;2.60;;;16.20;99.90;;;;;;5112465;28;20043;-58
2023/07/31 01:27:07;;;;;;;;;;;16.30;99.90;;;;;;5112441;28;20058;-58
2023/07/31 01:29:53;;;;;;;5.68;2.83;;;16.20;99.90;;;;;;5069448;28;19920;-58
2023/07/31 01:32:19;;;;;;;4.30;3.25;;;16.20;99.90;;;;;;5068685;28;20119;-58
2023/07/31 01:34:46;;;;;;;4.65;2.97;;;16.30;99.90;;;;;;5069343;28;20098;-57
2023/07/31 01:37:12;;;;;;;5.35;3.17;;;16.20;99.90;;;;;;5069521;28;20437;-59
2023/07/31 01:39:37;;;;;;;6.03;3.35;;;16.30;99.90;;;;;;5069377;28;20110;-58
2023/07/31 01:42:03;;;;;;;3.85;3.30;;;16.30;99.90;;;;;;5069249;28;20495;-58
2023/07/31 01:44:29;;;;;;;8.77;3.80;;;16.30;99.90;;;;;;5069310;28;20033;-58
2023/07/31 01:46:55;;;;;;;3.58;3.28;;;16.30;99.90;;;;;;5069359;28;20063;-59
2023/07/31 01:49:20;;;;;;;5.45;2.65;;;16.20;99.90;;;;;;5069137;28;20032;-59
2023/07/31 01:51:46;;;;;;;6.43;2.72;;;16.30;99.90;;;;;;5069060;28;20036;-59
2023/07/31 01:54:12;;;;;;;4.13;2.45;;;16.20;99.90;;;;;;5068988;28;20140;-58
2023/07/31 01:56:37;;;;;;;4.78;2.40;;;16.20;99.90;;;;;;5052400;28;20528;-59
2023/07/31 01:59:03;;;;;;;4.32;2.20;;;16.10;99.90;;;;;;5068817;28;20051;-59
2023/07/31 02:01:29;;;;;;;4.75;2.20;;;16.20;99.90;;;;;;5069077;28;20049;-59
2023/07/31 02:03:54;;;;;;;3.22;2.10;;;16.10;99.90;;;;;;5069320;28;20049;-59
2023/07/31 02:06:20;;;;;;;2.30;1.73;;;16.20;99.90;;;;;;5085180;28;20094;-58
2023/07/31 02:08:46;;;;;;;3.53;2.40;;;16.30;99.90;;;;;;5111993;28;20039;-58
2023/07/31 02:11:11;;;;;;;4.07;1.75;;;16.20;99.90;;;;;;5111981;28;20028;-59
2023/07/31 02:13:37;;;;;;;1.67;1.45;;;16.20;99.90;;;;;;5111955;28;20067;-59
2023/07/31 02:16:02;;;;;;;2.83;1.83;;;16.20;99.90;;;;;;5111767;28;20469;-59
2023/07/31 02:18:28;;;;;;;1.63;1.50;;;16.10;99.90;;;;;;5112195;28;20039;-59
2023/07/31 02:20:54;;;;;;;3.08;1.50;;;16.20;99.90;;;;;;5111558;28;20050;-60
2023/07/31 02:23:20;;;;;;;1.92;1.50;;;16.20;99.90;;;;;;5111584;28;20036;-59
2023/07/31 02:25:46;;;;;;;1.40;1.13;;;16.20;99.90;;;;;;5114043;28;20046;-59
2023/07/31 02:28:12;;;;;;;1.58;1.23;;;16.10;99.90;;;;;;5115308;28;20031;-58
2023/07/31 02:30:37;;;;;;;2.00;1.73;;;16.30;99.90;;;;;;5115646;28;20492;-58
2023/07/31 02:33:04;;;;;;;1.85;1.42;;;16.20;99.90;;;;;;5115047;28;20528;-57
2023/07/31 02:35:30;;;;;;;3.03;1.38;;;16.10;99.90;;;;;;5100634;28;20132;-58
2023/07/31 02:37:55;;;;;;;1.98;1.20;;;16.20;99.90;;;;;;5094926;28;20040;-58
2023/07/31 02:40:21;;;;;;;1.35;1.25;;;16.20;99.90;;;;;;5095004;28;20426;-59
2023/07/31 02:42:47;;;;;;;2.33;1.30;;;16.20;99.90;;;;;;5094906;28;20040;-59
2023/07/31 02:45:12;;;;;;;2.47;1.40;;;16.30;99.90;;;;;;5094976;28;20456;-58
2023/07/31 02:47:38;;;;;;;2.80;1.30;;;16.20;99.90;;;;;;5094731;28;20040;-58
2023/07/31 02:50:04;;;;;;;1.48;0.98;;;16.10;99.90;;;;;;5094498;28;20036;-58
2023/07/31 02:52:30;;;;;;;2.40;1.00;;;16.20;99.90;;;;;;5094761;28;20062;-59
2023/07/31 02:54:56;;;;;;;2.95;1.30;;;16.20;99.90;;;;;;5094501;28;20052;-57
2023/07/31 02:57:21;;;;;;;5.43;1.40;;;16.20;99.90;;;;;;5094188;28;20120;-58
2023/07/31 02:59:47;;;;;;;3.15;1.58;;;16.30;99.90;;;;;;5094489;28;20043;-57
2023/07/31 03:02:12;;;;;;;2.22;1.00;;;16.30;99.90;;;;;;5107162;28;20044;-57
2023/07/31 03:04:38;;;;;;;3.75;1.10;;;16.20;99.90;;;;;;5113345;28;20084;-57
2023/07/31 03:07:04;;;;;;;2.13;1.10;;;16.10;99.90;;;;;;5114589;28;20110;-58
2023/07/31 03:09:30;;;;;;;2.88;1.20;;;16.20;99.90;;;;;;5107853;28;20040;-57
2023/07/31 03:11:56;;;;;;;1.73;1.10;;;16.10;99.90;;;;;;5094380;28;20421;-58
2023/07/31 03:14:21;;;;;;;2.20;0.98;;;16.10;99.90;;;;;;5094233;28;20036;-58
2023/07/31 03:16:48;;;;;;;2.35;0.70;;;16.10;99.90;;;;;;5093796;28;20036;-58
2023/07/31 03:19:13;;;;;;;2.50;0.77;;;16.20;99.90;;;;;;5093062;28;20063;-57
2023/07/31 03:21:39;;;;;;;2.40;1.10;;;16.30;99.90;;;;;;5094063;28;20068;-58
2023/07/31 03:24:05;;;;;;;1.60;0.85;;;16.20;99.90;;;;;;5093866;28;20043;-57
2023/07/31 03:26:32;;;;;;;5.65;0.95;;;16.20;99.90;;;;;;5094287;28;20036;-57
2023/07/31 03:28:58;;;;;;;4.07;1.00;;;16.10;99.90;;;;;;5092907;28;20066;-57
2023/07/31 03:31:23;;;;;;;2.90;0.70;;;16.20;99.90;;;;;;5094205;28;20035;-57
2023/07/31 03:33:50;;;;;;;1.08;0.77;;;16.20;99.90;;;;;;5093592;28;20048;-57
2023/07/31 03:36:16;;;;;;;3.65;0.80;;;16.10;99.90;;;;;;5092198;28;20453;-57
2023/07/31 03:38:41;;;;;;;3.17;0.80;;;16.20;99.90;;;;;;5093712;28;20431;-57
2023/07/31 03:41:07;;;;;;;1.85;0.98;;;16.10;99.90;;;;;;5093878;28;20478;-57
2023/07/31 03:43:35;;;;;;;12.73;1.48;;;16.00;99.90;;;;;;5093708;28;20474;-58
2023/07/31 03:46:02;;;;;;;4.25;1.17;;;16.00;99.90;;;;;;5093649;28;20044;-59
2023/07/31 03:48:28;;;;;;;2.40;1.15;;;16.00;99.90;;;;;;5093280;28;20458;-60
2023/07/31 03:50:54;;;;;;;3.17;0.93;;;16.20;99.90;;;;;;5093598;28;20101;-58
2023/07/31 03:53:20;;;;;;;3.25;1.15;;;16.20;99.90;;;;;;5109115;28;20178;-58
2023/07/31 03:55:45;;;;;;;3.28;1.20;;;16.20;99.90;;;;;;5093611;28;20136;-58
2023/07/31 03:58:11;;;;;;;3.10;1.15;;;16.10;99.90;;;;;;5093357;28;20046;-58
2023/07/31 04:00:37;;;;;;;1.90;0.98;;;16.00;99.90;;;;;;5093590;28;20058;-59
2023/07/31 04:03:03;;;;;;;1.35;0.80;;;16.10;99.90;;;;;;5093423;28;20040;-57
2023/07/31 04:05:31;;;;;;;2.00;0.90;;;16.10;99.90;;;;;;5093359;28;20363;-59
2023/07/31 04:07:56;;;;;;;1.70;1.00;;;16.20;99.90;;;;;;5093348;28;20038;-58
2023/07/31 04:10:22;;;;;;;1.75;0.90;;;16.10;99.90;;;;;;5106541;28;20408;-59
2023/07/31 04:12:48;;;;;;;2.88;1.10;;;16.10;99.90;;;;;;5113622;28;20043;-58
2023/07/31 04:15:14;;;;;;;1.55;0.90;;;16.20;99.90;;;;;;5113414;28;20369;-57
2023/07/31 04:17:39;;;;;;;1.80;1.10;;;16.20;99.90;;;;;;5113119;28;20456;-57
2023/07/31 04:20:06;;;;;;;4.43;0.82;;;16.30;99.90;;;;;;5113421;28;20036;-57
2023/07/31 04:22:31;;;;;;;2.60;1.00;;;16.20;99.90;;;;;;5112824;28;20485;-57
2023/07/31 04:24:57;;;;;;;2.28;1.00;;;16.20;99.90;;;;;;5113533;28;20044;-56
2023/07/31 04:27:22;;;;;;;1.77;0.80;;;16.00;99.90;;;;;;5113389;28;20040;-57
2023/07/31 04:29:48;;;;;;;2.97;0.75;;;16.00;99.90;;;;;;5113234;28;20509;-56
2023/07/31 04:32:16;;;;;;;3.25;0.80;;;16.10;99.90;;;;;;5112810;28;20093;-57
2023/07/31 04:34:42;;;;;;;1.63;0.90;;;16.10;99.90;;;;;;5113242;28;20046;-58
2023/07/31 04:37:08;;;;;;;1.70;0.90;;;16.00;99.90;;;;;;5113258;28;20035;-57
2023/07/31 04:39:33;;;;;;;0.98;0.70;;;16.10;99.90;;;;;;5112877;28;20084;-57
2023/07/31 04:41:59;;;;;;;3.97;1.00;;;16.10;99.90;;;;;;5112963;27;20040;-57
2023/07/31 04:44:25;;;;;;;1.10;0.70;;;16.20;99.90;;;;;;5099887;28;20036;-57
2023/07/31 04:46:50;;;;;;;2.58;0.90;;;16.20;99.90;;;;;;5092465;28;20040;-56
2023/07/31 04:49:16;;;;;;;2.88;1.20;;;16.30;99.90;;;;;;5092266;28;20047;-57
2023/07/31 04:51:41;;;;;;;2.15;0.95;;;16.10;99.90;;;;;;5092182;28;20028;-57
2023/07/31 04:54:07;;;;;;;2.70;0.90;;;16.20;99.90;;;;;;5092051;28;20036;-58
2023/07/31 04:56:33;;;;;;;2.58;1.00;;;16.30;99.90;;;;;;5092118;28;20032;-57
2023/07/31 04:58:58;;;;;;;2.75;0.90;;;16.20;99.90;;;;;;5092362;28;20036;-59
2023/07/31 05:01:25;;;;;;;2.40;0.80;;;16.00;99.90;;;;;;5092455;28;20040;-58
2023/07/31 05:03:50;;;;;;;2.15;0.82;;;16.10;99.90;;;;;;5092057;28;20040;-58
2023/07/31 05:06:16;;;;;;;2.35;0.95;;;16.30;99.90;;;;;;5092425;28;20040;-58
2023/07/31 05:08:41;;;;;;;1.67;0.85;;;16.30;99.90;;;;;;5092534;28;20675;-59
2023/07/31 05:11:07;;;;;;;1.85;1.00;;;16.10;99.90;;;;;;5092273;28;20035;-58
2023/07/31 05:13:33;;;;;;;1.13;0.80;;;16.20;99.90;;;;;;5091999;28;20390;-59
2023/07/31 05:15:58;;;;;;;1.50;0.75;;;16.30;99.90;;;;;;5093874;28;20115;-58
2023/07/31 05:18:24;;;;;;;1.30;0.75;;;16.10;99.90;;;;;;5112829;28;20428;-58
2023/07/31 05:20:49;;;;;;;2.40;0.80;;;16.20;99.90;;;;;;5112101;28;20519;-58
2023/07/31 05:23:15;;;;;;;2.80;0.60;;;16.10;99.90;;;;;;5111122;28;20039;-58
2023/07/31 05:25:43;;;;;;;3.30;0.82;;;16.30;99.90;;;;;;5112517;28;20055;-58
2023/07/31 05:28:09;;;;;;;5.28;1.38;;;16.10;99.90;;;;;;5112068;28;20089;-58
2023/07/31 05:30:35;;;;;;;1.80;0.90;;;16.30;99.90;;;;;;5112472;28;20040;-58
2023/07/31 05:33:01;;;;;;;1.23;0.80;;;16.10;99.90;;;;;;5112258;28;20040;-59
2023/07/31 05:35:26;;;;;;;4.57;1.05;;;16.20;99.90;;;;;;5112511;28;20032;-59
2023/07/31 05:37:52;;;;;;;1.75;0.77;;;16.20;99.90;;;;;;5112019;28;20485;-58
2023/07/31 05:40:17;;;;;;;2.53;1.05;;;16.10;99.90;;;;;;5112441;28;20038;-59
2023/07/31 05:42:43;;;;;;;1.13;0.90;;;16.10;99.90;;;;;;5112212;28;20505;-58
2023/07/31 05:45:09;;;;;;;1.67;1.00;;;16.20;99.90;;;;;;5092515;28;20375;-59
2023/07/31 05:47:35;;;;;;;5.03;1.45;;;16.30;99.90;;;;;;5092183;28;20043;-59
2023/07/31 05:50:01;;;;;;;2.90;1.10;;;16.30;99.90;;;;;;5092053;28;20410;-59
2023/07/31 05:52:28;;;;;;;2.15;1.10;;;16.30;99.90;;;;;;5092158;28;20075;-59
2023/07/31 05:54:54;;;;;;;1.58;0.90;;;16.20;99.90;;;;;;5092197;28;20044;-58
2023/07/31 05:57:20;;;;;;;1.58;1.00;;;16.20;99.90;;;;;;5092104;28;20032;-58
2023/07/31 05:59:45;;;;;;;2.42;1.02;;;16.30;99.90;;;;;;5092890;28;20043;-58
2023/07/31 06:02:11;;;;;;;4.38;1.25;;;16.30;99.90;;;;;;5095650;28;20062;-58
2023/07/31 06:04:37;;;;;;;4.65;1.50;;;16.40;99.90;;;;;;5095719;28;20059;-58
2023/07/31 06:07:03;;;;;;;3.05;1.48;;;16.40;99.90;;;;;;5095640;28;20370;-58
2023/07/31 06:09:29;;;;;;;2.05;1.40;;;16.50;99.90;;;;;;5095781;28;20085;-58
2023/07/31 06:11:55;;;;;;;4.97;1.60;;;16.40;99.90;;;;;;5095615;28;20036;-58
2023/07/31 06:14:20;;;;;;;3.97;1.90;;;16.50;99.90;;;;;;5095520;28;20064;-59
2023/07/31 06:16:46;;;;;;;4.03;2.05;;;16.70;99.90;;;;;;5095398;28;20085;-61
2023/07/31 06:19:11;;;;;;;3.97;1.92;;;16.70;99.90;;;;;;5095185;28;20032;-60
2023/07/31 06:21:38;;;;;;;3.50;1.75;;;16.70;99.90;;;;;;5095251;28;20044;-58
2023/07/31 06:24:05;;;;;;;5.40;2.35;;;16.60;99.90;;;;;;5113600;28;20075;-58
2023/07/31 06:26:31;;;;;;;6.57;2.78;;;16.50;99.90;;;;;;5115409;28;20040;-59
2023/07/31 06:28:57;;;;;;;9.90;3.85;;;16.50;99.90;;;;;;5115839;28;20035;-58
2023/07/31 06:31:22;;;;;;;11.35;4.18;;;16.70;99.90;;;;;;5115722;28;20039;-57
2023/07/31 06:33:49;;;;;;;16.40;5.30;;;16.60;99.90;;;;;;5115412;28;20086;-58
2023/07/31 06:36:15;;;;;;;19.25;5.70;;;16.60;99.90;;;;;;5115424;28;20051;-58
2023/07/31 06:38:41;;;;;;;18.00;5.93;;;16.60;99.90;;;;;;5115133;28;20088;-57
2023/07/31 06:41:06;;;;;;;16.40;5.60;;;16.70;99.90;;;;;;5115537;28;20130;-57
2023/07/31 06:43:32;;;;;;;16.48;5.80;;;16.80;99.90;;;;;;5109657;28;20080;-58
2023/07/31 06:45:57;;;;;;;25.75;6.47;;;17.00;99.90;;;;;;5095028;28;20043;-58
2023/07/31 06:48:23;;;;;;;22.33;6.35;;;16.80;99.90;;;;;;5094900;28;20390;-58
2023/07/31 06:50:49;;;;;;;19.15;6.53;;;16.90;99.90;;;;;;5094900;28;20036;-58
2023/07/31 06:53:14;;;;;;;22.48;6.38;;;17.10;99.90;;;;;;5094615;28;20462;-57
2023/07/31 06:55:40;;;;;;;25.10;7.30;;;17.40;99.90;;;;;;5094945;28;20132;-57
2023/07/31 06:58:06;;;;;;;24.98;6.90;;;17.20;99.90;;;;;;5094882;28;20132;-57
2023/07/31 07:00:32;;;;;;;23.38;7.35;;;17.50;99.90;;;;;;5094468;28;20367;-58
2023/07/31 07:02:57;;;;;;;22.85;7.63;;;17.50;99.90;;;;;;5094305;28;20482;-57
2023/07/31 07:05:23;;;;;;;24.38;6.70;;;17.60;99.90;;;;;;5094409;28;20058;-57
2023/07/31 07:07:51;;;;;;;14.82;6.70;;;17.50;99.90;;;;;;5094497;28;20035;-58
2023/07/31 07:10:16;;;;;;;27.42;7.47;;;17.30;99.90;;;;;;5093902;28;20040;-59
2023/07/31 07:12:42;;;;;;;30.30;6.88;;;17.50;99.90;;;;;;5094013;28;20386;-58
2023/07/31 07:15:08;;;;;;;27.33;7.10;;;17.60;99.90;;;;;;5094484;28;20040;-58
2023/07/31 07:17:34;;;;;;;23.80;6.20;;;17.40;99.90;;;;;;5093983;28;20040;-58
2023/07/31 07:20:00;;;;;;;21.13;7.20;;;17.50;99.90;;;;;;5094441;28;20046;-58
2023/07/31 07:22:26;;;;;;;14.02;5.90;;;17.50;99.90;;;;;;5094124;28;20115;-58
2023/07/31 07:24:52;;;;;;;22.15;7.00;;;17.60;99.90;;;;;;5094332;28;20140;-57
2023/07/31 07:27:18;;;;;;;16.20;6.80;;;17.40;99.90;;;;;;5094046;28;20903;-58
2023/07/31 07:29:46;;;;;;;18.33;6.10;;;17.40;99.90;;;;;;5094057;28;20155;-58
2023/07/31 07:32:12;;;;;;;16.50;6.33;;;17.40;99.90;;;;;;5096295;28;20039;-57
2023/07/31 07:34:38;;;;;;;26.23;7.57;;;17.50;99.90;;;;;;5114406;28;20093;-57
2023/07/31 07:37:04;;;;;;;21.63;7.15;;;17.30;99.90;;;;;;5113935;28;20036;-57
2023/07/31 07:39:29;;;;;;;21.75;7.10;;;17.50;99.90;;;;;;5114205;28;20366;-57
2023/07/31 07:41:55;;;;;;;18.35;6.50;;;17.30;99.90;;;;;;5114154;28;20047;-58
2023/07/31 07:44:21;;;;;;;18.98;7.05;;;17.30;99.90;;;;;;5101817;27;20394;-57
2023/07/31 07:46:46;;;;;;;18.20;6.75;;;17.50;99.90;;;;;;5093027;28;20040;-58
2023/07/31 07:49:12;;;;;;;12.60;5.35;;;17.30;99.90;;;;;;5094014;28;20040;-58
2023/07/31 07:51:38;;;;;;;14.32;4.85;;;17.50;99.90;;;;;;5094045;28;20065;-58
2023/07/31 07:54:03;;;;;;;10.05;4.45;;;17.40;99.90;;;;;;5093951;28;20067;-59
2023/07/31 07:56:29;;;;;;;5.28;2.92;;;17.30;99.90;;;;;;5092295;28;20044;-59
2023/07/31 07:58:55;;;;;;;5.03;1.70;;;17.40;99.90;;;;;;5093832;28;20078;-58
2023/07/31 08:01:21;;;;;;;5.30;1.60;;;17.30;99.90;;;;;;5094042;28;20115;-58
2023/07/31 08:03:47;;;;;;;2.05;1.15;;;17.20;99.90;;;;;;5093658;28;20051;-58
2023/07/31 08:06:13;;;;;;;2.42;1.33;;;17.40;99.90;;;;;;5093710;28;20044;-59
2023/07/31 08:08:39;;;;;;;3.28;1.23;;;17.40;99.90;;;;;;5093641;28;20092;-59
2023/07/31 08:11:05;;;;;;;3.03;1.50;;;17.40;99.90;;;;;;5093459;28;20123;-58
2023/07/31 08:13:31;;;;;;;4.40;1.60;;;17.20;99.90;;;;;;5093570;28;20094;-59
2023/07/31 08:15:56;;;;;;;3.28;1.50;;;17.20;99.90;;;;;;5093874;28;20047;-57
2023/07/31 08:18:22;;;;;;;2.40;1.40;;;17.30;99.90;;;;;;5093411;28;20079;-58
2023/07/31 08:20:47;;;;;;;3.28;1.75;;;17.50;99.90;;;;;;5108908;28;20044;-58
2023/07/31 08:23:13;;;;;;;3.38;1.35;;;17.50;99.90;;;;;;5112846;28;20111;-58
2023/07/31 08:25:39;;;;;;;2.35;1.35;;;17.60;99.90;;;;;;5113534;28;20039;-58
2023/07/31 08:28:06;;;;;;;2.10;1.20;;;17.70;99.90;;;;;;5113587;28;20035;-58
2023/07/31 08:30:33;;;;;;;2.90;1.52;;;17.40;99.90;;;;;;5113736;28;20035;-58
2023/07/31 08:33:00;;;;;;;2.90;1.20;;;17.40;99.90;;;;;;5113022;28;20122;-59
2023/07/31 08:35:26;;;;;;;2.03;1.20;;;17.70;99.90;;;;;;5110510;28;20043;-58
2023/07/31 08:37:51;;;;;;;2.72;1.23;;;17.60;99.90;;;;;;5099087;28;20036;-59
2023/07/31 08:40:17;;;;;;;2.00;1.20;;;17.90;99.90;;;;;;5108551;28;20043;-58
2023/07/31 08:42:44;;;;;;;2.67;1.20;;;17.70;99.90;;;;;;5105175;28;20040;-58
2023/07/31 08:45:15;;;;;;;2.75;1.20;;;17.80;99.90;;;;;;5111658;28;20039;-57
2023/07/31 08:47:44;;;;;;;1.65;1.10;;;17.90;99.90;;;;;;5112995;28;20390;-58
2023/07/31 08:50:12;;;;;;;1.98;1.23;;;17.90;99.90;;;;;;5113103;28;20069;-58
2023/07/31 08:52:38;;;;;;;1.98;1.00;;;17.90;99.90;;;;;;5104586;28;20042;-58
2023/07/31 08:55:05;;;;;;;1.20;0.95;;;17.90;99.90;;;;;;5111649;28;20052;-57
2023/07/31 08:57:34;;;;;;;0.70;0.70;;;18.20;99.90;;;;;;5105320;28;20058;-58
2023/07/31 09:00:00;;;;;;;1.40;0.82;;;18.20;99.90;;;;;;5112628;28;20398;-58
2023/07/31 09:02:34;;;;;;;1.67;0.82;;;18.10;99.90;;;;;;5112862;28;20038;-58
2023/07/31 09:05:01;;;;;;;1.08;0.90;;;18.00;99.90;;;;;;5112466;28;20485;-57
2023/07/31 09:07:27;;;;;;;1.30;0.82;;;18.00;99.90;;;;;;5112721;28;20038;-57
2023/07/31 09:09:52;;;;;;;0.85;0.77;;;18.10;99.90;;;;;;5112648;28;20039;-58
2023/07/31 09:12:19;;;;;;;0.77;0.77;;;18.20;99.90;;;;;;5112867;28;20031;-58
2023/07/31 09:14:46;;;;;;;4.25;0.70;;;18.30;99.90;;;;;;5112931;28;20397;-58
2023/07/31 09:17:11;;;;;;;0.80;0.70;;;18.20;99.90;;;;;;5113127;28;20841;-58
2023/07/31 09:19:37;;;;;;;1.35;0.88;;;18.30;99.90;;;;;;5112722;28;20035;-59
2023/07/31 09:22:04;;;;;;;2.25;0.88;;;18.10;99.90;;;;;;5112884;28;20039;-57
2023/07/31 09:24:32;;;;;;;2.40;0.90;;;18.30;99.90;;;;;;5112646;28;20032;-59
2023/07/31 09:26:59;;;;;;;1.95;0.73;;;18.20;99.90;;;;;;5106753;28;20409;-58
2023/07/31 09:29:26;;;;;;;1.05;0.75;;;18.00;99.90;;;;;;5110411;28;20028;-60
2023/07/31 09:31:53;;;;;;;2.17;0.73;;;18.00;99.90;;;;;;5112693;28;20032;-59
2023/07/31 09:34:19;;;;;;;0.75;0.73;;;18.30;99.90;;;;;;5113929;28;20056;-58
2023/07/31 09:36:50;;;;;;;0.88;0.77;;;18.20;99.90;;;;;;5116697;28;20040;-58
2023/07/31 09:39:17;;;;;;;1.92;0.80;;;18.20;99.90;;;;;;5116608;28;20553;-59
2023/07/31 09:41:46;;;;;;;1.85;0.80;;;18.00;99.90;;;;;;5115568;28;20126;-58
2023/07/31 09:44:11;;;;;;;;;;;18.20;99.90;;;;;;5105477;27;20482;-58
2023/07/31 09:46:37;;;;;;;1.00;0.47;;;18.20;99.90;;;;;;5096173;28;19931;-58
2023/07/31 09:49:13;;;;;;;0.32;0.30;;;18.40;99.90;;;;;;5096355;28;20101;-58
2023/07/31 09:51:41;;;;;;;1.20;0.60;;;18.40;99.90;;;;;;5094861;28;20039;-58
2023/07/31 09:54:16;;;;;;;2.37;0.60;;;18.30;99.90;;;;;;5113141;28;20477;-58
2023/07/31 09:56:45;;;;;;;2.13;0.60;;;18.10;99.90;;;;;;5106456;28;20498;-58
2023/07/31 09:59:15;;;;;;;0.70;0.60;;;18.10;99.90;;;;;;5110146;28;20040;-58
2023/07/31 10:01:42;;;;;;;1.30;0.30;;;18.10;99.90;;;;;;5115706;28;20137;-57
2023/07/31 10:04:10;;;;;;;4.10;0.90;;;18.10;99.90;;;;;;5115949;28;20096;-58
2023/07/31 10:06:36;;;;;;;0.75;0.30;;;18.10;99.90;;;;;;5109870;28;20035;-58
2023/07/31 10:09:05;;;;;;;0.38;0.22;;;18.30;99.90;;;;;;5116100;28;20038;-58
2023/07/31 10:11:33;;;;;;;0.73;0.30;;;18.00;99.90;;;;;;5115744;28;20039;-59
2023/07/31 10:13:59;;;;;;;1.02;0.30;;;18.30;99.90;;;;;;5116102;28;20463;-58
2023/07/31 10:16:26;;;;;;;1.02;0.30;;;18.20;99.90;;;;;;5115708;28;20132;-58
2023/07/31 10:18:52;;;;;;;0.43;0.25;;;18.10;99.90;;;;;;5115813;28;20118;-57
2023/07/31 10:21:18;;;;;;;0.20;0.20;;;18.40;99.90;;;;;;5114895;28;20047;-58
2023/07/31 10:23:44;;;;;;;0.73;0.20;;;18.10;99.90;;;;;;5115792;28;20410;-57
2023/07/31 10:26:11;;;;;;;0.45;0.15;;;18.30;99.90;;;;;;5114261;28;20075;-57
2023/07/31 10:28:38;;;;;;;0.13;0.13;;;18.10;99.90;;;;;;5115377;28;20054;-58
2023/07/31 10:31:05;;;;;;;1.27;0.30;;;18.20;99.90;;;;;;5115795;28;20043;-58
2023/07/31 10:33:31;;;;;;;0.43;0.20;;;18.50;99.90;;;;;;5115541;28;20051;-59
2023/07/31 10:36:14;;;;;;;0.20;0.20;;;18.50;99.90;;;;;;5116021;28;20456;-58
2023/07/31 10:38:40;;;;;;;1.45;0.38;;;18.40;99.90;;;;;;5114311;28;20067;-58
2023/07/31 10:41:09;;;;;;;1.88;0.30;;;18.40;99.90;;;;;;5115175;28;20067;-58
2023/07/31 10:43:39;;;;;;;1.23;0.20;;;18.50;99.90;;;;;;5109177;27;20044;-58
2023/07/31 10:46:12;;;;;;;1.40;0.28;;;18.40;99.90;;;;;;5094523;28;20044;-58
2023/07/31 10:48:41;;;;;;;0.98;0.30;;;18.50;99.90;;;;;;5093774;28;20111;-58
2023/07/31 10:51:11;;;;;;;2.05;0.30;;;18.90;99.90;;;;;;5094460;28;20111;-58
2023/07/31 10:53:39;;;;;;;2.10;0.40;;;19.00;99.90;;;;;;5093264;28;20454;-58
2023/07/31 10:56:12;;;;;;;0.50;0.32;;;19.10;99.90;;;;;;5094647;28;20044;-57
2023/07/31 10:58:38;;;;;;;0.25;0.25;;;19.20;99.90;;;;;;5092389;28;20044;-58
2023/07/31 11:01:05;;;;;;;0.73;0.30;;;19.00;99.90;;;;;;5094598;28;20085;-58
2023/07/31 11:03:53;;;;;;;1.05;0.40;;;18.90;99.90;;;;;;5098210;28;20528;-58
2023/07/31 11:06:18;;;;;;;0.40;0.40;;;19.00;99.90;;;;;;5114762;28;20118;-58
2023/07/31 11:08:45;;;;;;;0.52;0.40;;;18.80;99.90;;;;;;5114650;28;20122;-58
2023/07/31 11:11:17;;;;;;;0.70;0.40;;;18.80;99.90;;;;;;5114999;28;20032;-58
2023/07/31 11:13:49;;;;;;;1.33;0.55;;;18.80;99.90;;;;;;5113180;28;20047;-58
2023/07/31 11:16:16;;;;;;;3.20;0.80;;;18.90;99.90;;;;;;5114996;28;20086;-57
2023/07/31 11:18:44;;;;;;;0.65;0.65;;;19.10;99.90;;;;;;5114466;28;20489;-58
2023/07/31 11:21:21;;;;;;;2.83;0.80;;;18.90;99.90;;;;;;5114987;28;20035;-58
2023/07/31 11:23:52;;;;;;;3.42;0.88;;;19.10;99.90;;;;;;5102769;28;20546;-58
2023/07/31 11:26:19;;;;;;;1.17;0.90;;;18.90;99.90;;;;;;5114615;27;20035;-58
2023/07/31 11:28:47;;;;;;;0.60;0.60;;;18.90;99.90;;;;;;5114695;28;20047;-58
2023/07/31 11:31:13;;;;;;;0.55;0.55;;;18.90;99.90;;;;;;5113007;28;20460;-58
2023/07/31 11:33:39;;;;;;;1.63;0.82;;;19.00;99.90;;;;;;5114051;28;20079;-58
2023/07/31 11:36:05;;;;;;;1.60;0.82;;;18.80;99.90;;;;;;5114293;28;20074;-58
2023/07/31 11:38:33;;;;;;;3.03;1.15;;;19.10;99.90;;;;;;5114008;28;20035;-58
2023/07/31 11:41:00;;;;;;;4.20;0.80;;;18.90;99.90;;;;;;5113969;28;20428;-58
2023/07/31 11:43:26;;;;;;;2.37;0.80;;;19.00;99.90;;;;;;5108765;28;20028;-57
2023/07/31 11:45:55;;;;;;;3.65;0.77;;;19.00;99.90;;;;;;5091953;28;20312;-57
2023/07/31 11:48:35;;;;;;;1.52;0.80;;;18.90;99.90;;;;;;5093405;28;20566;-59
2023/07/31 11:51:03;;;;;;;0.98;0.80;;;18.70;99.90;;;;;;5093559;28;20040;-59
2023/07/31 11:53:53;;;;;;;2.05;0.70;;;18.70;99.90;;;;;;5091194;28;20083;-59
2023/07/31 11:56:20;;;;;;;1.35;0.63;;;18.60;99.90;;;;;;5093160;28;20560;-59
2023/07/31 11:58:52;;;;;;;1.17;0.77;;;18.60;99.90;;;;;;5092069;28;20043;-60
2023/07/31 12:01:20;;;;;;;0.82;0.77;;;18.70;99.90;;;;;;5093533;28;20036;-59
2023/07/31 12:03:47;;;;;;;1.02;0.93;;;18.80;99.90;;;;;;5093490;28;20105;-58
2023/07/31 12:06:13;;;;;;;0.80;0.80;;;18.70;99.90;;;;;;5093410;28;20046;-57
2023/07/31 12:08:38;;;;;;;4.18;1.17;;;18.80;99.90;;;;;;5092375;28;20040;-58
2023/07/31 12:11:09;;;;;;;2.25;0.90;;;19.10;99.90;;;;;;5093274;28;20036;-58
2023/07/31 12:13:35;;;;;;;1.50;0.95;;;19.10;99.90;;;;;;5091815;28;20105;-58
2023/07/31 12:16:03;;;;;;;2.03;0.95;;;19.20;99.90;;;;;;5092941;28;20040;-58
2023/07/31 12:18:33;;;;;;;1.80;1.20;;;19.30;99.90;;;;;;5093128;28;20036;-58
2023/07/31 12:21:00;;;;;;;2.50;1.10;;;19.40;99.90;;;;;;5078585;28;20048;-59
2023/07/31 12:23:31;;;;;;;4.30;1.10;;;19.20;99.90;;;;;;5093248;28;20043;-57
2023/07/31 12:26:14;;;;;;;2.22;1.10;;;19.40;99.90;;;;;;5092890;28;20036;-58
2023/07/31 12:28:48;;;;;;;1.77;1.00;;;19.40;99.90;;;;;;5092840;28;20044;-57
2023/07/31 12:31:22;;;;;;;2.92;1.17;;;19.10;99.90;;;;;;5092695;28;20042;-58
2023/07/31 12:33:50;;;;;;;2.60;0.70;;;19.10;99.90;;;;;;5092450;28;20059;-58
2023/07/31 12:36:18;;;;;;;3.58;0.90;;;19.10;99.90;;;;;;5091606;28;20439;-58
2023/07/31 12:38:45;;;;;;;2.63;1.17;;;19.30;99.90;;;;;;5092580;28;20036;-57
2023/07/31 12:41:11;;;;;;;2.28;1.13;;;19.50;99.90;;;;;;5092522;28;20419;-59
2023/07/31 12:43:38;;;;;;;3.85;1.45;;;19.50;99.90;;;;;;5092430;28;20127;-58